sensor_id;sensor_type;location;lat;lon;timestamp;P1;durP1;ratioP1;P2;durP2;ratioP2
19651;SDS011;9974;52.146;14.668;2023-03-16T00:01:37;9.63;;;2.23;;
19651;SDS011;9974;52.146;14.668;2023-03-16T00:04:03;3.47;;;1.47;;
19651;SDS011;9974;52.146;14.668;2023-03-16T00:06:29;6.63;;;2.30;;
19651;SDS011;9974;52.146;14.668;2023-03-16T00:08:55;10.57;;;2.57;;
19651;SDS011;9974;52.146;14.668;2023-03-16T00:11:25;10.70;;;2.27;;
19651;SDS011;9974;52.146;14.668;2023-03-16T00:13:51;8.83;;;2.67;;
19651;SDS011;9974;52.146;14.668;2023-03-16T00:16:17;8.93;;;2.93;;
19651;SDS011;9974;52.146;14.668;2023-03-16T00:18:44;7.47;;;1.80;;
19651;SDS011;9974;52.146;14.668;2023-03-16T00:21:10;7.30;;;1.87;;
19651;SDS011;9974;52.146;14.668;2023-03-16T00:23:38;5.90;;;2.23;;
19651;SDS011;9974;52.146;14.668;2023-03-16T00:26:07;5.37;;;2.03;;
19651;SDS011;9974;52.146;14.668;2023-03-16T00:28:34;7.13;;;1.90;;
19651;SDS011;9974;52.146;14.668;2023-03-16T00:31:04;7.13;;;2.07;;
19651;SDS011;9974;52.146;14.668;2023-03-16T00:33:35;5.20;;;2.20;;
19651;SDS011;9974;52.146;14.668;2023-03-16T00:36:03;6.13;;;2.20;;
19651;SDS011;9974;52.146;14.668;2023-03-16T00:38:33;7.33;;;2.40;;
19651;SDS011;9974;52.146;14.668;2023-03-16T00:41:04;6.03;;;1.93;;
19651;SDS011;9974;52.146;14.668;2023-03-16T00:43:32;7.33;;;2.13;;
19651;SDS011;9974;52.146;14.668;2023-03-16T00:46:04;5.13;;;2.00;;
19651;SDS011;9974;52.146;14.668;2023-03-16T00:48:35;5.17;;;2.03;;
19651;SDS011;9974;52.146;14.668;2023-03-16T00:51:04;11.33;;;2.27;;
19651;SDS011;9974;52.146;14.668;2023-03-16T00:53:32;7.07;;;2.00;;
19651;SDS011;9974;52.146;14.668;2023-03-16T00:55:58;6.60;;;2.00;;
19651;SDS011;9974;52.146;14.668;2023-03-16T00:58:28;6.03;;;2.27;;
19651;SDS011;9974;52.146;14.668;2023-03-16T01:00:59;8.47;;;2.00;;
19651;SDS011;9974;52.146;14.668;2023-03-16T01:03:29;7.67;;;2.30;;
19651;SDS011;9974;52.146;14.668;2023-03-16T01:05:55;8.10;;;2.40;;
19651;SDS011;9974;52.146;14.668;2023-03-16T01:08:24;6.60;;;2.30;;
19651;SDS011;9974;52.146;14.668;2023-03-16T01:10:52;7.97;;;2.53;;
19651;SDS011;9974;52.146;14.668;2023-03-16T01:13:18;5.97;;;2.80;;
19651;SDS011;9974;52.146;14.668;2023-03-16T01:15:45;6.83;;;2.00;;
19651;SDS011;9974;52.146;14.668;2023-03-16T01:18:13;4.27;;;1.63;;
19651;SDS011;9974;52.146;14.668;2023-03-16T01:20:39;8.77;;;2.27;;
19651;SDS011;9974;52.146;14.668;2023-03-16T01:23:12;6.40;;;1.80;;
19651;SDS011;9974;52.146;14.668;2023-03-16T01:25:38;6.63;;;2.53;;
19651;SDS011;9974;52.146;14.668;2023-03-16T01:28:06;9.23;;;2.03;;
19651;SDS011;9974;52.146;14.668;2023-03-16T01:30:32;5.13;;;2.93;;
19651;SDS011;9974;52.146;14.668;2023-03-16T01:32:59;8.33;;;2.53;;
19651;SDS011;9974;52.146;14.668;2023-03-16T01:35:25;7.23;;;3.13;;
19651;SDS011;9974;52.146;14.668;2023-03-16T01:37:51;8.57;;;3.53;;
19651;SDS011;9974;52.146;14.668;2023-03-16T01:40:17;8.83;;;3.93;;
19651;SDS011;9974;52.146;14.668;2023-03-16T01:42:44;9.97;;;3.20;;
19651;SDS011;9974;52.146;14.668;2023-03-16T01:48:35;9.60;;;2.90;;
19651;SDS011;9974;52.146;14.668;2023-03-16T01:51:23;9.40;;;2.63;;
19651;SDS011;9974;52.146;14.668;2023-03-16T01:54:19;9.40;;;2.50;;
19651;SDS011;9974;52.146;14.668;2023-03-16T01:56:50;11.37;;;2.83;;
19651;SDS011;9974;52.146;14.668;2023-03-16T01:59:31;9.03;;;3.23;;
19651;SDS011;9974;52.146;14.668;2023-03-16T02:02:04;11.10;;;2.37;;
19651;SDS011;9974;52.146;14.668;2023-03-16T02:07:07;9.43;;;3.20;;
19651;SDS011;9974;52.146;14.668;2023-03-16T02:09:34;7.67;;;2.60;;
19651;SDS011;9974;52.146;14.668;2023-03-16T02:12:03;5.83;;;2.63;;
19651;SDS011;9974;52.146;14.668;2023-03-16T02:14:29;10.70;;;2.57;;
19651;SDS011;9974;52.146;14.668;2023-03-16T02:16:55;9.63;;;2.70;;
19651;SDS011;9974;52.146;14.668;2023-03-16T02:19:32;10.73;;;2.47;;
19651;SDS011;9974;52.146;14.668;2023-03-16T02:22:07;7.27;;;2.30;;
19651;SDS011;9974;52.146;14.668;2023-03-16T02:24:35;8.77;;;3.07;;
19651;SDS011;9974;52.146;14.668;2023-03-16T02:27:03;11.63;;;3.07;;
19651;SDS011;9974;52.146;14.668;2023-03-16T02:29:52;9.40;;;2.57;;
19651;SDS011;9974;52.146;14.668;2023-03-16T02:32:22;11.50;;;2.63;;
19651;SDS011;9974;52.146;14.668;2023-03-16T02:34:49;6.83;;;2.33;;
19651;SDS011;9974;52.146;14.668;2023-03-16T02:37:15;5.87;;;2.27;;
19651;SDS011;9974;52.146;14.668;2023-03-16T02:39:41;8.87;;;2.70;;
19651;SDS011;9974;52.146;14.668;2023-03-16T02:42:09;10.43;;;3.07;;
19651;SDS011;9974;52.146;14.668;2023-03-16T02:44:36;5.83;;;2.53;;
19651;SDS011;9974;52.146;14.668;2023-03-16T02:47:05;5.87;;;2.40;;
19651;SDS011;9974;52.146;14.668;2023-03-16T02:49:35;10.00;;;2.33;;
19651;SDS011;9974;52.146;14.668;2023-03-16T02:52:03;9.10;;;2.23;;
19651;SDS011;9974;52.146;14.668;2023-03-16T02:54:30;8.63;;;3.20;;
19651;SDS011;9974;52.146;14.668;2023-03-16T02:56:56;12.40;;;3.27;;
19651;SDS011;9974;52.146;14.668;2023-03-16T02:59:22;10.10;;;3.10;;
19651;SDS011;9974;52.146;14.668;2023-03-16T03:01:48;5.33;;;2.20;;
19651;SDS011;9974;52.146;14.668;2023-03-16T03:04:15;9.77;;;3.00;;
19651;SDS011;9974;52.146;14.668;2023-03-16T03:06:41;10.93;;;2.57;;
19651;SDS011;9974;52.146;14.668;2023-03-16T03:09:08;7.87;;;2.50;;
19651;SDS011;9974;52.146;14.668;2023-03-16T03:11:37;7.93;;;2.27;;
19651;SDS011;9974;52.146;14.668;2023-03-16T03:14:03;8.23;;;2.30;;
19651;SDS011;9974;52.146;14.668;2023-03-16T03:16:30;9.23;;;2.63;;
19651;SDS011;9974;52.146;14.668;2023-03-16T03:18:56;8.37;;;2.40;;
19651;SDS011;9974;52.146;14.668;2023-03-16T03:21:22;7.90;;;2.47;;
19651;SDS011;9974;52.146;14.668;2023-03-16T03:23:48;6.53;;;2.70;;
19651;SDS011;9974;52.146;14.668;2023-03-16T03:26:15;6.87;;;2.93;;
19651;SDS011;9974;52.146;14.668;2023-03-16T03:28:41;8.90;;;2.60;;
19651;SDS011;9974;52.146;14.668;2023-03-16T03:31:19;9.23;;;2.63;;
19651;SDS011;9974;52.146;14.668;2023-03-16T03:33:46;10.03;;;2.93;;
19651;SDS011;9974;52.146;14.668;2023-03-16T03:36:12;8.80;;;2.20;;
19651;SDS011;9974;52.146;14.668;2023-03-16T03:38:39;6.63;;;2.17;;
19651;SDS011;9974;52.146;14.668;2023-03-16T03:41:05;6.63;;;2.17;;
19651;SDS011;9974;52.146;14.668;2023-03-16T03:43:32;11.73;;;2.73;;
19651;SDS011;9974;52.146;14.668;2023-03-16T03:45:59;8.83;;;2.40;;
19651;SDS011;9974;52.146;14.668;2023-03-16T03:48:26;9.80;;;2.50;;
19651;SDS011;9974;52.146;14.668;2023-03-16T03:50:52;9.10;;;2.77;;
19651;SDS011;9974;52.146;14.668;2023-03-16T03:53:18;7.60;;;2.87;;
19651;SDS011;9974;52.146;14.668;2023-03-16T03:55:45;9.10;;;2.10;;
19651;SDS011;9974;52.146;14.668;2023-03-16T03:58:11;11.90;;;3.10;;
19651;SDS011;9974;52.146;14.668;2023-03-16T04:00:37;7.37;;;2.43;;
19651;SDS011;9974;52.146;14.668;2023-03-16T04:03:03;6.37;;;2.33;;
19651;SDS011;9974;52.146;14.668;2023-03-16T04:05:30;10.60;;;2.87;;
19651;SDS011;9974;52.146;14.668;2023-03-16T04:07:56;13.50;;;3.00;;
19651;SDS011;9974;52.146;14.668;2023-03-16T04:10:26;6.57;;;2.97;;
19651;SDS011;9974;52.146;14.668;2023-03-16T04:12:57;11.43;;;3.13;;
19651;SDS011;9974;52.146;14.668;2023-03-16T04:15:24;6.40;;;2.23;;
19651;SDS011;9974;52.146;14.668;2023-03-16T04:17:50;10.87;;;2.90;;
19651;SDS011;9974;52.146;14.668;2023-03-16T04:20:16;8.80;;;2.60;;
19651;SDS011;9974;52.146;14.668;2023-03-16T04:22:47;5.10;;;2.10;;
19651;SDS011;9974;52.146;14.668;2023-03-16T04:25:14;8.73;;;3.13;;
19651;SDS011;9974;52.146;14.668;2023-03-16T04:27:41;5.87;;;2.30;;
19651;SDS011;9974;52.146;14.668;2023-03-16T04:30:10;12.50;;;2.90;;
19651;SDS011;9974;52.146;14.668;2023-03-16T04:32:37;6.57;;;2.37;;
19651;SDS011;9974;52.146;14.668;2023-03-16T04:35:04;8.10;;;2.50;;
19651;SDS011;9974;52.146;14.668;2023-03-16T04:37:30;4.67;;;2.63;;
19651;SDS011;9974;52.146;14.668;2023-03-16T04:39:58;9.43;;;2.63;;
19651;SDS011;9974;52.146;14.668;2023-03-16T04:42:24;5.43;;;2.40;;
19651;SDS011;9974;52.146;14.668;2023-03-16T04:44:50;6.80;;;2.50;;
19651;SDS011;9974;52.146;14.668;2023-03-16T04:47:16;5.70;;;2.30;;
19651;SDS011;9974;52.146;14.668;2023-03-16T04:49:42;10.80;;;2.83;;
19651;SDS011;9974;52.146;14.668;2023-03-16T04:52:09;8.97;;;2.70;;
19651;SDS011;9974;52.146;14.668;2023-03-16T04:54:35;7.10;;;2.83;;
19651;SDS011;9974;52.146;14.668;2023-03-16T04:57:01;8.67;;;2.63;;
19651;SDS011;9974;52.146;14.668;2023-03-16T04:59:30;10.60;;;3.13;;
19651;SDS011;9974;52.146;14.668;2023-03-16T05:01:56;7.50;;;3.30;;
19651;SDS011;9974;52.146;14.668;2023-03-16T05:04:22;8.23;;;2.80;;
19651;SDS011;9974;52.146;14.668;2023-03-16T05:06:48;5.27;;;2.40;;
19651;SDS011;9974;52.146;14.668;2023-03-16T05:09:15;7.73;;;2.60;;
19651;SDS011;9974;52.146;14.668;2023-03-16T05:11:41;8.23;;;3.50;;
19651;SDS011;9974;52.146;14.668;2023-03-16T05:14:07;7.37;;;2.87;;
19651;SDS011;9974;52.146;14.668;2023-03-16T05:16:33;8.73;;;3.43;;
19651;SDS011;9974;52.146;14.668;2023-03-16T05:18:59;7.47;;;3.23;;
19651;SDS011;9974;52.146;14.668;2023-03-16T05:21:26;8.57;;;2.63;;
19651;SDS011;9974;52.146;14.668;2023-03-16T05:23:55;7.23;;;2.93;;
19651;SDS011;9974;52.146;14.668;2023-03-16T05:26:22;7.77;;;3.07;;
19651;SDS011;9974;52.146;14.668;2023-03-16T05:28:51;10.67;;;3.13;;
19651;SDS011;9974;52.146;14.668;2023-03-16T05:31:17;8.10;;;2.83;;
19651;SDS011;9974;52.146;14.668;2023-03-16T05:33:43;9.00;;;2.40;;
19651;SDS011;9974;52.146;14.668;2023-03-16T05:36:09;4.90;;;2.50;;
19651;SDS011;9974;52.146;14.668;2023-03-16T05:38:36;5.67;;;2.90;;
19651;SDS011;9974;52.146;14.668;2023-03-16T05:41:04;8.73;;;2.90;;
19651;SDS011;9974;52.146;14.668;2023-03-16T05:43:30;8.03;;;3.00;;
19651;SDS011;9974;52.146;14.668;2023-03-16T05:45:56;6.10;;;2.80;;
19651;SDS011;9974;52.146;14.668;2023-03-16T05:48:22;6.57;;;2.97;;
19651;SDS011;9974;52.146;14.668;2023-03-16T05:50:51;7.17;;;2.63;;
19651;SDS011;9974;52.146;14.668;2023-03-16T05:53:18;14.20;;;7.60;;
19651;SDS011;9974;52.146;14.668;2023-03-16T05:55:44;18.77;;;10.97;;
19651;SDS011;9974;52.146;14.668;2023-03-16T05:58:15;21.40;;;10.73;;
19651;SDS011;9974;52.146;14.668;2023-03-16T06:00:41;13.40;;;7.97;;
19651;SDS011;9974;52.146;14.668;2023-03-16T06:03:07;11.17;;;5.33;;
19651;SDS011;9974;52.146;14.668;2023-03-16T06:05:33;9.23;;;5.23;;
19651;SDS011;9974;52.146;14.668;2023-03-16T06:07:59;13.20;;;4.40;;
19651;SDS011;9974;52.146;14.668;2023-03-16T06:10:26;7.60;;;3.30;;
19651;SDS011;9974;52.146;14.668;2023-03-16T06:12:52;10.90;;;4.00;;
19651;SDS011;9974;52.146;14.668;2023-03-16T06:15:18;14.10;;;3.17;;
19651;SDS011;9974;52.146;14.668;2023-03-16T06:17:47;9.27;;;2.73;;
19651;SDS011;9974;52.146;14.668;2023-03-16T06:20:13;4.83;;;2.03;;
19651;SDS011;9974;52.146;14.668;2023-03-16T06:22:40;9.17;;;3.03;;
19651;SDS011;9974;52.146;14.668;2023-03-16T06:25:06;7.47;;;2.77;;
19651;SDS011;9974;52.146;14.668;2023-03-16T06:27:33;11.73;;;3.93;;
19651;SDS011;9974;52.146;14.668;2023-03-16T06:30:00;9.33;;;2.57;;
19651;SDS011;9974;52.146;14.668;2023-03-16T06:32:26;8.17;;;2.83;;
19651;SDS011;9974;52.146;14.668;2023-03-16T06:34:52;7.70;;;2.43;;
19651;SDS011;9974;52.146;14.668;2023-03-16T06:37:18;8.43;;;2.87;;
19651;SDS011;9974;52.146;14.668;2023-03-16T06:39:45;7.90;;;2.63;;
19651;SDS011;9974;52.146;14.668;2023-03-16T06:42:11;5.50;;;2.47;;
19651;SDS011;9974;52.146;14.668;2023-03-16T06:44:37;7.47;;;2.77;;
19651;SDS011;9974;52.146;14.668;2023-03-16T06:47:03;6.03;;;2.37;;
19651;SDS011;9974;52.146;14.668;2023-03-16T06:49:30;8.77;;;2.60;;
19651;SDS011;9974;52.146;14.668;2023-03-16T06:51:56;9.87;;;2.77;;
19651;SDS011;9974;52.146;14.668;2023-03-16T06:54:22;9.30;;;2.33;;
19651;SDS011;9974;52.146;14.668;2023-03-16T06:56:48;7.83;;;2.10;;
19651;SDS011;9974;52.146;14.668;2023-03-16T06:59:16;5.33;;;3.03;;
19651;SDS011;9974;52.146;14.668;2023-03-16T07:01:42;6.83;;;2.93;;
19651;SDS011;9974;52.146;14.668;2023-03-16T07:04:09;8.67;;;2.27;;
19651;SDS011;9974;52.146;14.668;2023-03-16T07:06:36;4.07;;;2.10;;
19651;SDS011;9974;52.146;14.668;2023-03-16T07:09:02;7.23;;;2.50;;
19651;SDS011;9974;52.146;14.668;2023-03-16T07:11:29;7.17;;;3.30;;
19651;SDS011;9974;52.146;14.668;2023-03-16T07:13:56;10.40;;;2.50;;
19651;SDS011;9974;52.146;14.668;2023-03-16T07:16:23;6.80;;;2.40;;
19651;SDS011;9974;52.146;14.668;2023-03-16T07:18:49;7.57;;;2.57;;
19651;SDS011;9974;52.146;14.668;2023-03-16T07:21:16;8.60;;;2.80;;
19651;SDS011;9974;52.146;14.668;2023-03-16T07:23:42;9.90;;;3.10;;
19651;SDS011;9974;52.146;14.668;2023-03-16T07:26:09;10.67;;;2.53;;
19651;SDS011;9974;52.146;14.668;2023-03-16T07:28:36;9.90;;;2.13;;
19651;SDS011;9974;52.146;14.668;2023-03-16T07:31:02;8.20;;;2.07;;
19651;SDS011;9974;52.146;14.668;2023-03-16T07:33:29;4.27;;;1.53;;
19651;SDS011;9974;52.146;14.668;2023-03-16T07:35:56;6.00;;;2.15;;
19651;SDS011;9974;52.146;14.668;2023-03-16T07:38:22;11.00;;;2.35;;
19651;SDS011;9974;52.146;14.668;2023-03-16T07:40:49;5.40;;;1.75;;
19651;SDS011;9974;52.146;14.668;2023-03-16T07:43:18;5.55;;;1.73;;
19651;SDS011;9974;52.146;14.668;2023-03-16T07:45:47;7.45;;;1.90;;
19651;SDS011;9974;52.146;14.668;2023-03-16T07:48:15;7.95;;;2.53;;
19651;SDS011;9974;52.146;14.668;2023-03-16T07:50:41;9.27;;;2.33;;
19651;SDS011;9974;52.146;14.668;2023-03-16T07:53:07;9.50;;;2.25;;
19651;SDS011;9974;52.146;14.668;2023-03-16T07:55:34;5.97;;;2.30;;
19651;SDS011;9974;52.146;14.668;2023-03-16T07:58:00;10.95;;;2.22;;
19651;SDS011;9974;52.146;14.668;2023-03-16T08:00:28;8.05;;;1.98;;
19651;SDS011;9974;52.146;14.668;2023-03-16T08:02:54;6.22;;;1.73;;
19651;SDS011;9974;52.146;14.668;2023-03-16T08:05:21;3.58;;;1.42;;
19651;SDS011;9974;52.146;14.668;2023-03-16T08:07:47;6.65;;;1.73;;
19651;SDS011;9974;52.146;14.668;2023-03-16T08:10:13;4.82;;;1.10;;
19651;SDS011;9974;52.146;14.668;2023-03-16T08:12:39;4.28;;;1.40;;
19651;SDS011;9974;52.146;14.668;2023-03-16T08:15:05;4.70;;;1.33;;
19651;SDS011;9974;52.146;14.668;2023-03-16T08:17:32;3.67;;;1.10;;
19651;SDS011;9974;52.146;14.668;2023-03-16T08:19:58;3.35;;;1.10;;
19651;SDS011;9974;52.146;14.668;2023-03-16T08:22:24;4.55;;;1.60;;
19651;SDS011;9974;52.146;14.668;2023-03-16T08:24:50;6.65;;;2.00;;
19651;SDS011;9974;52.146;14.668;2023-03-16T08:27:16;5.55;;;1.45;;
19651;SDS011;9974;52.146;14.668;2023-03-16T08:29:44;4.50;;;1.33;;
19651;SDS011;9974;52.146;14.668;2023-03-16T08:32:10;5.22;;;2.28;;
19651;SDS011;9974;52.146;14.668;2023-03-16T08:34:36;5.00;;;1.40;;
19651;SDS011;9974;52.146;14.668;2023-03-16T08:37:03;4.18;;;1.58;;
19651;SDS011;9974;52.146;14.668;2023-03-16T08:39:30;3.65;;;1.10;;
19651;SDS011;9974;52.146;14.668;2023-03-16T08:41:57;4.93;;;1.55;;
19651;SDS011;9974;52.146;14.668;2023-03-16T08:44:23;6.05;;;1.85;;
19651;SDS011;9974;52.146;14.668;2023-03-16T08:46:50;8.05;;;2.35;;
19651;SDS011;9974;52.146;14.668;2023-03-16T08:49:16;7.80;;;1.42;;
19651;SDS011;9974;52.146;14.668;2023-03-16T08:51:44;2.83;;;1.02;;
19651;SDS011;9974;52.146;14.668;2023-03-16T08:54:11;6.18;;;1.67;;
19651;SDS011;9974;52.146;14.668;2023-03-16T08:56:36;3.70;;;1.30;;
19651;SDS011;9974;52.146;14.668;2023-03-16T08:59:02;5.75;;;1.58;;
19651;SDS011;9974;52.146;14.668;2023-03-16T09:01:29;3.70;;;1.70;;
19651;SDS011;9974;52.146;14.668;2023-03-16T09:03:55;5.88;;;1.60;;
19651;SDS011;9974;52.146;14.668;2023-03-16T09:06:22;7.88;;;1.75;;
19651;SDS011;9974;52.146;14.668;2023-03-16T09:08:48;6.13;;;1.45;;
19651;SDS011;9974;52.146;14.668;2023-03-16T09:11:15;6.00;;;1.45;;
19651;SDS011;9974;52.146;14.668;2023-03-16T09:13:43;3.25;;;1.30;;
19651;SDS011;9974;52.146;14.668;2023-03-16T09:16:10;8.80;;;1.48;;
19651;SDS011;9974;52.146;14.668;2023-03-16T09:18:37;6.25;;;1.13;;
19651;SDS011;9974;52.146;14.668;2023-03-16T09:21:05;4.82;;;0.88;;
19651;SDS011;9974;52.146;14.668;2023-03-16T09:23:32;7.35;;;1.13;;
19651;SDS011;9974;52.146;14.668;2023-03-16T09:25:59;7.20;;;1.27;;
19651;SDS011;9974;52.146;14.668;2023-03-16T09:28:27;3.53;;;1.35;;
19651;SDS011;9974;52.146;14.668;2023-03-16T09:30:55;4.82;;;0.98;;
19651;SDS011;9974;52.146;14.668;2023-03-16T09:33:22;2.45;;;0.73;;
19651;SDS011;9974;52.146;14.668;2023-03-16T09:35:49;7.47;;;1.50;;
19651;SDS011;9974;52.146;14.668;2023-03-16T09:38:16;4.15;;;1.25;;
19651;SDS011;9974;52.146;14.668;2023-03-16T09:40:42;3.35;;;1.13;;
19651;SDS011;9974;52.146;14.668;2023-03-16T09:43:46;4.00;;;0.95;;
19651;SDS011;9974;52.146;14.668;2023-03-16T09:46:33;7.95;;;1.63;;
19651;SDS011;9974;52.146;14.668;2023-03-16T09:49:08;4.30;;;1.25;;
19651;SDS011;9974;52.146;14.668;2023-03-16T09:51:38;4.30;;;1.33;;
19651;SDS011;9974;52.146;14.668;2023-03-16T09:54:16;4.13;;;1.30;;
19651;SDS011;9974;52.146;14.668;2023-03-16T09:56:58;6.35;;;1.40;;
19651;SDS011;9974;52.146;14.668;2023-03-16T09:59:25;2.45;;;1.15;;
19651;SDS011;9974;52.146;14.668;2023-03-16T10:01:56;4.45;;;1.30;;
19651;SDS011;9974;52.146;14.668;2023-03-16T10:04:40;1.50;;;0.80;;
19651;SDS011;9974;52.146;14.668;2023-03-16T10:08:20;6.03;;;0.98;;
19651;SDS011;9974;52.146;14.668;2023-03-16T10:19:12;6.18;;;1.38;;
19651;SDS011;9974;52.146;14.668;2023-03-16T10:21:56;3.70;;;0.75;;
19651;SDS011;9974;52.146;14.668;2023-03-16T10:24:32;4.70;;;1.40;;
19651;SDS011;9974;52.146;14.668;2023-03-16T10:27:05;6.90;;;1.27;;
19651;SDS011;9974;52.146;14.668;2023-03-16T10:29:34;1.90;;;0.95;;
19651;SDS011;9974;52.146;14.668;2023-03-16T10:32:04;3.70;;;0.80;;
19651;SDS011;9974;52.146;14.668;2023-03-16T10:34:36;5.32;;;1.30;;
19651;SDS011;9974;52.146;14.668;2023-03-16T10:37:03;4.72;;;1.45;;
19651;SDS011;9974;52.146;14.668;2023-03-16T10:39:36;6.13;;;1.67;;
19651;SDS011;9974;52.146;14.668;2023-03-16T10:42:08;2.95;;;0.70;;
19651;SDS011;9974;52.146;14.668;2023-03-16T10:44:41;6.07;;;1.67;;
19651;SDS011;9974;52.146;14.668;2023-03-16T10:47:12;8.90;;;1.73;;
19651;SDS011;9974;52.146;14.668;2023-03-16T10:49:43;4.32;;;1.27;;
19651;SDS011;9974;52.146;14.668;2023-03-16T10:52:35;2.63;;;0.85;;
19651;SDS011;9974;52.146;14.668;2023-03-16T10:55:11;5.25;;;1.10;;
19651;SDS011;9974;52.146;14.668;2023-03-16T10:57:48;5.43;;;1.25;;
19651;SDS011;9974;52.146;14.668;2023-03-16T11:00:21;9.23;;;2.83;;
19651;SDS011;9974;52.146;14.668;2023-03-16T11:02:53;3.80;;;1.17;;
19651;SDS011;9974;52.146;14.668;2023-03-16T11:05:25;3.30;;;1.23;;
19651;SDS011;9974;52.146;14.668;2023-03-16T11:07:57;3.33;;;1.05;;
19651;SDS011;9974;52.146;14.668;2023-03-16T11:10:38;6.97;;;1.67;;
19651;SDS011;9974;52.146;14.668;2023-03-16T11:13:12;2.58;;;0.90;;
19651;SDS011;9974;52.146;14.668;2023-03-16T11:15:44;3.40;;;1.20;;
19651;SDS011;9974;52.146;14.668;2023-03-16T11:18:34;2.33;;;0.98;;
19651;SDS011;9974;52.146;14.668;2023-03-16T11:21:07;3.53;;;1.20;;
19651;SDS011;9974;52.146;14.668;2023-03-16T11:23:51;3.75;;;1.15;;
19651;SDS011;9974;52.146;14.668;2023-03-16T11:26:21;1.48;;;0.70;;
19651;SDS011;9974;52.146;14.668;2023-03-16T11:31:50;5.97;;;1.27;;
19651;SDS011;9974;52.146;14.668;2023-03-16T11:34:21;4.45;;;1.23;;
19651;SDS011;9974;52.146;14.668;2023-03-16T11:36:55;2.58;;;0.80;;
19651;SDS011;9974;52.146;14.668;2023-03-16T11:39:40;3.40;;;1.15;;
19651;SDS011;9974;52.146;14.668;2023-03-16T11:42:29;5.63;;;1.25;;
19651;SDS011;9974;52.146;14.668;2023-03-16T11:45:10;5.75;;;1.70;;
19651;SDS011;9974;52.146;14.668;2023-03-16T11:51:00;3.63;;;1.15;;
19651;SDS011;9974;52.146;14.668;2023-03-16T11:53:46;2.20;;;0.80;;
19651;SDS011;9974;52.146;14.668;2023-03-16T11:56:34;4.85;;;1.30;;
19651;SDS011;9974;52.146;14.668;2023-03-16T12:04:40;2.60;;;1.02;;
19651;SDS011;9974;52.146;14.668;2023-03-16T12:07:47;4.75;;;0.98;;
19651;SDS011;9974;52.146;14.668;2023-03-16T12:10:22;6.85;;;1.40;;
19651;SDS011;9974;52.146;14.668;2023-03-16T12:13:00;3.85;;;0.98;;
19651;SDS011;9974;52.146;14.668;2023-03-16T12:15:51;4.22;;;0.90;;
19651;SDS011;9974;52.146;14.668;2023-03-16T12:18:31;5.05;;;1.33;;
19651;SDS011;9974;52.146;14.668;2023-03-16T12:21:11;3.08;;;0.90;;
19651;SDS011;9974;52.146;14.668;2023-03-16T12:26:23;3.13;;;1.27;;
19651;SDS011;9974;52.146;14.668;2023-03-16T12:28:53;3.42;;;1.13;;
19651;SDS011;9974;52.146;14.668;2023-03-16T12:31:27;2.20;;;0.88;;
19651;SDS011;9974;52.146;14.668;2023-03-16T12:34:07;2.17;;;0.70;;
19651;SDS011;9974;52.146;14.668;2023-03-16T12:37:16;2.58;;;0.60;;
19651;SDS011;9974;52.146;14.668;2023-03-16T12:39:51;9.93;;;1.17;;
19651;SDS011;9974;52.146;14.668;2023-03-16T12:46:14;3.65;;;0.95;;
19651;SDS011;9974;52.146;14.668;2023-03-16T12:49:06;4.63;;;1.23;;
19651;SDS011;9974;52.146;14.668;2023-03-16T12:51:38;5.15;;;0.75;;
19651;SDS011;9974;52.146;14.668;2023-03-16T12:54:17;2.28;;;0.70;;
19651;SDS011;9974;52.146;14.668;2023-03-16T12:56:48;3.38;;;1.08;;
19651;SDS011;9974;52.146;14.668;2023-03-16T12:59:18;0.63;;;0.40;;
19651;SDS011;9974;52.146;14.668;2023-03-16T13:01:51;5.03;;;1.27;;
19651;SDS011;9974;52.146;14.668;2023-03-16T13:04:29;1.55;;;0.80;;
19651;SDS011;9974;52.146;14.668;2023-03-16T13:07:04;4.28;;;1.08;;
19651;SDS011;9974;52.146;14.668;2023-03-16T13:09:41;3.03;;;1.00;;
19651;SDS011;9974;52.146;14.668;2023-03-16T13:12:29;2.47;;;0.93;;
19651;SDS011;9974;52.146;14.668;2023-03-16T13:15:01;1.23;;;0.52;;
19651;SDS011;9974;52.146;14.668;2023-03-16T13:20:48;3.00;;;0.80;;
19651;SDS011;9974;52.146;14.668;2023-03-16T13:23:27;2.50;;;0.85;;
19651;SDS011;9974;52.146;14.668;2023-03-16T13:26:37;2.70;;;1.00;;
19651;SDS011;9974;52.146;14.668;2023-03-16T13:29:20;3.70;;;0.95;;
19651;SDS011;9974;52.146;14.668;2023-03-16T13:31:50;3.85;;;1.23;;
19651;SDS011;9974;52.146;14.668;2023-03-16T13:34:19;5.07;;;1.00;;
19651;SDS011;9974;52.146;14.668;2023-03-16T13:36:48;2.58;;;0.75;;
19651;SDS011;9974;52.146;14.668;2023-03-16T13:39:21;6.25;;;0.80;;
19651;SDS011;9974;52.146;14.668;2023-03-16T13:41:56;1.98;;;0.90;;
19651;SDS011;9974;52.146;14.668;2023-03-16T13:44:33;1.58;;;1.00;;
19651;SDS011;9974;52.146;14.668;2023-03-16T13:47:05;4.78;;;0.95;;
19651;SDS011;9974;52.146;14.668;2023-03-16T13:49:47;4.78;;;1.20;;
19651;SDS011;9974;52.146;14.668;2023-03-16T13:52:20;4.53;;;0.88;;
19651;SDS011;9974;52.146;14.668;2023-03-16T13:54:49;3.80;;;0.80;;
19651;SDS011;9974;52.146;14.668;2023-03-16T13:57:17;2.90;;;0.63;;
19651;SDS011;9974;52.146;14.668;2023-03-16T13:59:45;3.08;;;1.13;;
19651;SDS011;9974;52.146;14.668;2023-03-16T14:02:19;5.85;;;1.33;;
19651;SDS011;9974;52.146;14.668;2023-03-16T14:04:47;3.10;;;0.98;;
19651;SDS011;9974;52.146;14.668;2023-03-16T14:07:17;1.85;;;0.80;;
19651;SDS011;9974;52.146;14.668;2023-03-16T14:09:46;3.60;;;0.93;;
19651;SDS011;9974;52.146;14.668;2023-03-16T14:12:14;2.53;;;0.70;;
19651;SDS011;9974;52.146;14.668;2023-03-16T14:14:44;4.65;;;0.90;;
19651;SDS011;9974;52.146;14.668;2023-03-16T14:17:18;2.22;;;0.82;;
19651;SDS011;9974;52.146;14.668;2023-03-16T14:19:49;3.17;;;0.90;;
19651;SDS011;9974;52.146;14.668;2023-03-16T14:22:21;1.75;;;0.68;;
19651;SDS011;9974;52.146;14.668;2023-03-16T14:24:53;2.38;;;1.10;;
19651;SDS011;9974;52.146;14.668;2023-03-16T14:30:14;2.35;;;0.73;;
19651;SDS011;9974;52.146;14.668;2023-03-16T14:32:58;3.53;;;1.40;;
19651;SDS011;9974;52.146;14.668;2023-03-16T14:35:38;5.65;;;0.93;;
19651;SDS011;9974;52.146;14.668;2023-03-16T14:38:17;3.78;;;1.10;;
19651;SDS011;9974;52.146;14.668;2023-03-16T14:40:54;3.50;;;1.02;;
19651;SDS011;9974;52.146;14.668;2023-03-16T14:43:31;3.72;;;0.90;;
19651;SDS011;9974;52.146;14.668;2023-03-16T14:46:05;5.57;;;2.03;;
19651;SDS011;9974;52.146;14.668;2023-03-16T14:48:33;2.00;;;0.88;;
19651;SDS011;9974;52.146;14.668;2023-03-16T14:51:00;6.28;;;1.15;;
19651;SDS011;9974;52.146;14.668;2023-03-16T14:53:28;2.05;;;0.93;;
19651;SDS011;9974;52.146;14.668;2023-03-16T14:55:55;3.55;;;1.33;;
19651;SDS011;9974;52.146;14.668;2023-03-16T14:58:21;3.83;;;0.85;;
19651;SDS011;9974;52.146;14.668;2023-03-16T15:00:48;5.00;;;0.73;;
19651;SDS011;9974;52.146;14.668;2023-03-16T15:03:17;2.13;;;0.55;;
19651;SDS011;9974;52.146;14.668;2023-03-16T15:05:45;3.90;;;1.00;;
19651;SDS011;9974;52.146;14.668;2023-03-16T15:08:16;5.15;;;1.35;;
19651;SDS011;9974;52.146;14.668;2023-03-16T15:10:47;6.00;;;2.05;;
19651;SDS011;9974;52.146;14.668;2023-03-16T15:13:16;2.35;;;1.20;;
19651;SDS011;9974;52.146;14.668;2023-03-16T15:16:13;2.78;;;1.02;;
19651;SDS011;9974;52.146;14.668;2023-03-16T15:18:39;2.75;;;1.25;;
19651;SDS011;9974;52.146;14.668;2023-03-16T15:21:10;2.55;;;1.10;;
19651;SDS011;9974;52.146;14.668;2023-03-16T15:23:37;7.15;;;1.15;;
19651;SDS011;9974;52.146;14.668;2023-03-16T15:26:04;5.30;;;1.48;;
19651;SDS011;9974;52.146;14.668;2023-03-16T15:28:31;4.63;;;1.20;;
19651;SDS011;9974;52.146;14.668;2023-03-16T15:31:00;1.98;;;0.95;;
19651;SDS011;9974;52.146;14.668;2023-03-16T15:33:27;4.95;;;1.38;;
19651;SDS011;9974;52.146;14.668;2023-03-16T15:35:54;3.65;;;1.30;;
19651;SDS011;9974;52.146;14.668;2023-03-16T15:38:28;2.78;;;1.10;;
19651;SDS011;9974;52.146;14.668;2023-03-16T15:40:56;3.75;;;1.20;;
19651;SDS011;9974;52.146;14.668;2023-03-16T15:43:24;6.15;;;1.50;;